Time;durP1;ratioP1;P1;durP2;ratioP2;P2;SDS_P1;SDS_P2;PMS_P1;PMS_P2;Temp;Humidity;BMP_temperature;BMP_pressure;BME280_temperature;BME280_humidity;BME280_pressure;Samples;Min_cycle;Max_cycle;Signal;HPM_P1;HPM_P2
2023/09/09 00:01:07;;;;;;;;;;;;;;;16.85;70.55;101071.50;5026263;28;2098;-75
2023/09/09 00:03:59;;;;;;;;;;;;;;;16.85;70.61;101085.09;5025183;28;1870;-77
2023/09/09 00:06:51;;;;;;;;;;;;;;;16.84;70.52;101080.72;5029618;28;1150;-77
2023/09/09 00:09:43;;;;;;;;;;;;;;;16.83;70.63;101079.91;5029884;28;1714;-76
2023/09/09 00:12:35;;;;;;;;;;;;;;;16.84;70.38;101072.56;5023474;28;2091;-76
2023/09/09 00:15:26;;;;;;;;;;;;;;;16.83;70.49;101060.06;5024521;28;2118;-77
2023/09/09 00:18:18;;;;;;;;;;;;;;;16.83;70.62;101074.47;5022083;28;2039;-76
2023/09/09 00:21:10;;;;;;;;;;;;;;;16.84;70.63;101076.13;5029985;28;1249;-76
2023/09/09 00:24:02;;;;;;;;;;;;;;;16.83;70.55;101062.78;5028598;28;1301;-76
2023/09/09 00:26:55;;;;;;;;;;;;;;;16.82;70.74;101047.50;5027098;28;1948;-76
2023/09/09 00:29:47;;;;;;;;;;;;;;;16.82;70.46;101037.44;5027532;28;2338;-76
2023/09/09 00:32:38;;;;;;;;;;;;;;;16.82;70.42;101025.75;5025659;28;2150;-76
2023/09/09 00:35:32;;;;;;;;;;;;;;;16.82;70.45;101036.63;5024660;28;1980;-77
2023/09/09 00:38:24;;;;;;;;;;;;;;;16.82;70.33;101031.19;5019111;28;1967;-78
2023/09/09 00:41:17;;;;;;;;;;;;;;;16.81;70.47;101030.38;5026740;28;2311;-78
2023/09/09 00:44:09;;;;;;;;;;;;;;;16.79;70.45;101022.47;5023778;28;1873;-76
2023/09/09 00:47:01;;;;;;;;;;;;;;;16.81;70.47;101043.97;5024012;28;2058;-76
2023/09/09 00:49:53;;;;;;;;;;;;;;;16.80;70.48;101055.94;5026831;28;2110;-77
2023/09/09 00:52:46;;;;;;;;;;;;;;;16.80;70.47;101048.59;5027415;28;2035;-76
2023/09/09 00:55:40;;;;;;;;;;;;;;;16.79;70.42;101046.97;5026523;28;2067;-76
2023/09/09 00:58:32;;;;;;;;;;;;;;;16.78;70.32;101050.72;5020556;28;2021;-78
2023/09/09 01:01:24;;;;;;;;;;;;;;;16.79;70.39;101057.00;5026967;28;2403;-77
2023/09/09 01:04:16;;;;;;;;;;;;;;;16.78;70.49;101034.41;5027291;28;2015;-76
2023/09/09 01:07:08;;;;;;;;;;;;;;;16.78;70.40;101047.19;5029361;28;2224;-76
2023/09/09 01:10:00;;;;;;;;;;;;;;;16.78;70.48;101045.28;5026053;28;1953;-77
2023/09/09 01:12:52;;;;;;;;;;;;;;;16.78;70.33;101047.19;5021805;28;6105;-78
2023/09/09 01:15:44;;;;;;;;;;;;;;;16.77;70.46;101043.66;5029128;28;5197;-78
2023/09/09 01:18:36;;;;;;;;;;;;;;;16.77;70.49;101042.84;5033477;28;4912;-78
2023/09/09 01:21:31;;;;;;;;;;;;;;;16.77;70.47;101034.66;5032784;28;2120;-77
2023/09/09 01:24:23;;;;;;;;;;;;;;;16.76;70.54;101031.09;5026731;28;1941;-78
2023/09/09 01:27:14;;;;;;;;;;;;;;;16.76;70.48;101022.13;5029581;28;1944;-75
2023/09/09 01:30:06;;;;;;;;;;;;;;;16.76;70.30;101024.84;5030007;28;5076;-77
2023/09/09 01:32:57;;;;;;;;;;;;;;;16.76;70.39;101031.09;5029570;28;1075;-77
2023/09/09 01:35:48;;;;;;;;;;;;;;;16.76;70.46;101027.56;5033451;28;2066;-78
2023/09/09 01:38:40;;;;;;;;;;;;;;;16.76;70.36;101027.56;5028088;28;1907;-77
2023/09/09 01:41:32;;;;;;;;;;;;;;;16.75;70.25;101013.13;5028536;28;2113;-77
2023/09/09 01:44:24;;;;;;;;;;;;;;;16.75;70.28;101018.56;5029022;28;2125;-78
2023/09/09 01:47:16;;;;;;;;;;;;;;;16.75;70.30;101023.19;5033764;28;2055;-76
2023/09/09 01:50:08;;;;;;;;;;;;;;;16.73;70.49;101015.25;5030629;28;1956;-77
2023/09/09 01:53:00;;;;;;;;;;;;;;;16.73;70.32;101009.81;5031714;28;1587;-77
2023/09/09 01:55:52;;;;;;;;;;;;;;;16.73;70.34;101017.16;5032181;28;1964;-76
2023/09/09 01:58:44;;;;;;;;;;;;;;;16.73;70.43;101030.75;5032513;28;2018;-77
2023/09/09 02:01:35;;;;;;;;;;;;;;;16.74;70.42;101046.84;5028200;28;2108;-77
2023/09/09 02:04:27;;;;;;;;;;;;;;;16.74;70.32;101054.19;5026221;28;2213;-77
2023/09/09 02:07:19;;;;;;;;;;;;;;;16.72;70.30;101050.88;5033007;28;1500;-76
2023/09/09 02:10:11;;;;;;;;;;;;;;;16.72;70.25;101034.56;5029187;28;1973;-77
2023/09/09 02:13:02;;;;;;;;;;;;;;;16.72;70.46;101037.28;5032530;28;1932;-75
2023/09/09 02:15:54;;;;;;;;;;;;;;;16.71;70.41;101022.84;5024907;28;2004;-76
2023/09/09 02:18:46;;;;;;;;;;;;;;;16.72;70.33;101020.97;5030657;28;1951;-76
2023/09/09 02:21:38;;;;;;;;;;;;;;;16.71;70.42;101005.72;5033668;28;1285;-78
2023/09/09 02:24:30;;;;;;;;;;;;;;;16.70;70.35;101004.88;5033159;28;1328;-75
2023/09/09 02:27:22;;;;;;;;;;;;;;;16.71;70.31;101005.72;5028749;28;2018;-75
2023/09/09 02:30:14;;;;;;;;;;;;;;;16.70;70.21;101015.75;5028337;28;2003;-75
2023/09/09 02:33:06;;;;;;;;;;;;;;;16.70;70.52;101007.59;5029320;28;1875;-75
2023/09/09 02:35:58;;;;;;;;;;;;;;;16.70;70.30;101009.50;5030067;28;2061;-76
2023/09/09 02:38:50;;;;;;;;;;;;;;;16.69;70.34;101000.53;5031013;28;1910;-76
2023/09/09 02:41:42;;;;;;;;;;;;;;;16.69;70.25;100996.97;5031213;28;987;-76
2023/09/09 02:44:34;;;;;;;;;;;;;;;16.69;70.16;100986.09;5029541;28;1123;-78
2023/09/09 02:47:26;;;;;;;;;;;;;;;16.68;70.27;100982.56;5029142;28;1977;-75
2023/09/09 02:50:17;;;;;;;;;;;;;;;16.69;70.16;100977.94;5025734;28;2067;-76
2023/09/09 02:53:09;;;;;;;;;;;;;;;16.68;70.34;100977.13;5026336;28;1262;-78
2023/09/09 02:56:01;;;;;;;;;;;;;;;16.68;70.24;100982.56;5031692;28;1148;-76
2023/09/09 02:58:53;;;;;;;;;;;;;;;16.67;70.16;100975.47;5027253;28;1987;-75
2023/09/09 03:01:45;;;;;;;;;;;;;;;16.67;70.28;100969.22;5022628;28;2074;-75
2023/09/09 03:04:37;;;;;;;;;;;;;;;16.66;70.29;100971.09;5024541;28;2011;-77
2023/09/09 03:07:29;;;;;;;;;;;;;;;16.67;70.21;100977.38;5029559;28;1989;-76
2023/09/09 03:10:21;;;;;;;;;;;;;;;16.67;70.23;100977.38;5025002;28;973;-76
2023/09/09 03:13:13;;;;;;;;;;;;;;;16.66;70.26;100965.66;5031245;28;1213;-77
2023/09/09 03:16:05;;;;;;;;;;;;;;;16.65;70.24;100961.31;5022388;28;2102;-76
2023/09/09 03:18:57;;;;;;;;;;;;;;;16.66;70.22;100959.41;5023745;28;2039;-76
2023/09/09 03:21:49;;;;;;;;;;;;;;;16.65;70.21;100966.75;5030143;28;897;-75
2023/09/09 03:24:41;;;;;;;;;;;;;;;16.65;70.22;100963.19;5030117;28;996;-77
2023/09/09 03:27:33;;;;;;;;;;;;;;;16.66;70.36;100960.22;5028899;28;1921;-74
2023/09/09 03:30:25;;;;;;;;;;;;;;;16.65;70.32;100961.31;5025508;28;2123;-78
2023/09/09 03:33:16;;;;;;;;;;;;;;;16.65;70.21;100963.19;5030129;28;2021;-77
2023/09/09 03:36:08;;;;;;;;;;;;;;;16.64;70.18;100956.94;5027718;28;1987;-77
2023/09/09 03:39:03;;;;;;;;;;;;;;;16.63;70.20;100949.84;5029545;28;1960;-75
2023/09/09 03:41:55;;;;;;;;;;;;;;;16.64;70.29;100961.56;5026933;28;2178;-76
2023/09/09 03:44:47;;;;;;;;;;;;;;;16.63;70.18;100958.00;5022319;28;5146;-77
2023/09/09 03:47:39;;;;;;;;;;;;;;;16.63;70.17;100958.00;5029537;28;2352;-76
2023/09/09 03:50:31;;;;;;;;;;;;;;;16.63;70.24;100963.44;5026929;28;5273;-75
2023/09/09 03:53:23;;;;;;;;;;;;;;;16.63;70.11;100962.63;5028732;28;1228;-74
2023/09/09 03:56:15;;;;;;;;;;;;;;;16.62;70.19;100956.38;5030761;28;2048;-76
2023/09/09 03:59:07;;;;;;;;;;;;;;;16.62;70.13;100963.69;5026738;28;1906;-76
2023/09/09 04:01:59;;;;;;;;;;;;;;;16.62;70.22;100956.38;5028848;28;4858;-76
2023/09/09 04:04:51;;;;;;;;;;;;;;;16.63;70.12;100965.34;5023252;28;2027;-76
2023/09/09 04:07:47;;;;;;;;;;;;;;;16.61;70.16;100949.28;5027162;28;1055;-77
2023/09/09 04:10:39;;;;;;;;;;;;;;;16.62;70.14;100955.53;5023344;28;1543;-77
2023/09/09 04:13:31;;;;;;;;;;;;;;;16.61;70.27;100957.44;5027087;28;2183;-77
2023/09/09 04:16:23;;;;;;;;;;;;;;;16.61;70.19;100962.88;5026565;28;2019;-76
2023/09/09 04:19:15;;;;;;;;;;;;;;;16.60;70.19;100966.66;5024079;28;2037;-76
2023/09/09 04:22:07;;;;;;;;;;;;;;;16.59;70.20;100951.44;5026516;28;1941;-76
2023/09/09 04:24:59;;;;;;;;;;;;;;;16.61;70.25;100959.31;5031765;28;1950;-77
2023/09/09 04:27:51;;;;;;;;;;;;;;;16.59;70.17;100959.59;5031475;28;1738;-78
2023/09/09 04:30:43;;;;;;;;;;;;;;;16.60;70.18;100960.41;5023937;28;2118;-77
2023/09/09 04:33:35;;;;;;;;;;;;;;;16.60;70.21;100954.97;5026128;28;2277;-75
2023/09/09 04:36:27;;;;;;;;;;;;;;;16.58;70.15;100955.22;5028360;28;2190;-77
2023/09/09 04:39:19;;;;;;;;;;;;;;;16.57;70.13;100965.28;5024662;28;1950;-76
2023/09/09 04:42:12;;;;;;;;;;;;;;;16.57;70.03;100956.28;5026871;28;2134;-76
2023/09/09 04:45:04;;;;;;;;;;;;;;;16.56;70.24;100960.91;5024570;28;1732;-77
2023/09/09 04:47:56;;;;;;;;;;;;;;;16.57;70.11;100961.72;5031538;28;1594;-76
2023/09/09 04:50:48;;;;;;;;;;;;;;;16.57;70.05;100957.09;5028208;28;2012;-76
2023/09/09 04:53:40;;;;;;;;;;;;;;;16.56;70.09;100949.22;5034069;28;1890;-76
2023/09/09 04:56:32;;;;;;;;;;;;;;;16.57;70.15;100946.22;5034786;28;1632;-77
2023/09/09 04:59:24;;;;;;;;;;;;;;;16.56;70.09;100949.22;5018428;28;5453;-76
2023/09/09 05:02:16;;;;;;;;;;;;;;;16.56;70.06;100938.34;5024983;28;2079;-77
2023/09/09 05:05:08;;;;;;;;;;;;;;;16.55;69.99;100945.66;5030053;28;2249;-76
2023/09/09 05:08:00;;;;;;;;;;;;;;;16.54;70.13;100935.84;5045630;28;2148;-76
2023/09/09 05:10:52;;;;;;;;;;;;;;;16.54;70.09;100935.84;5039816;28;1299;-76
2023/09/09 05:13:44;;;;;;;;;;;;;;;16.54;70.10;100933.16;5030793;28;4285;-76
2023/09/09 05:16:36;;;;;;;;;;;;;;;16.54;70.15;100933.16;5032106;28;2193;-75
2023/09/09 05:19:28;;;;;;;;;;;;;;;16.53;70.13;100936.94;5027657;28;2106;-76
2023/09/09 05:22:20;;;;;;;;;;;;;;;16.54;70.03;100938.56;5022135;28;5152;-77
2023/09/09 05:25:11;;;;;;;;;;;;;;;16.53;70.06;100931.50;5034779;28;2093;-76
2023/09/09 05:28:03;;;;;;;;;;;;;;;16.53;70.09;100942.38;5031348;28;1786;-76
2023/09/09 05:30:55;;;;;;;;;;;;;;;16.53;70.13;100939.66;5025138;28;2189;-76
2023/09/09 05:33:47;;;;;;;;;;;;;;;16.53;70.26;100955.13;5028220;28;1305;-77
2023/09/09 05:36:39;;;;;;;;;;;;;;;16.52;70.17;100957.03;5033767;28;1426;-76
2023/09/09 05:39:31;;;;;;;;;;;;;;;16.52;70.05;100943.44;5032201;28;1993;-76
2023/09/09 05:42:23;;;;;;;;;;;;;;;16.51;70.05;100952.69;5031069;28;1113;-75
2023/09/09 05:45:15;;;;;;;;;;;;;;;16.52;70.02;100948.88;5030816;28;2025;-75
2023/09/09 05:48:07;;;;;;;;;;;;;;;16.51;70.01;100949.13;5033499;28;1990;-76
2023/09/09 05:50:59;;;;;;;;;;;;;;;16.51;70.15;100941.81;5033199;28;1282;-77
2023/09/09 05:53:51;;;;;;;;;;;;;;;16.52;70.12;100946.16;5026412;28;1095;-78
2023/09/09 05:56:43;;;;;;;;;;;;;;;16.51;70.00;100949.94;5036458;28;1628;-77
2023/09/09 05:59:35;;;;;;;;;;;;;;;16.50;69.97;100944.75;5029393;28;1907;-77
2023/09/09 06:02:30;;;;;;;;;;;;;;;16.51;69.91;100946.41;5033751;28;1545;-77
2023/09/09 06:05:22;;;;;;;;;;;;;;;16.50;70.04;100950.19;5031855;28;1378;-77
2023/09/09 06:08:14;;;;;;;;;;;;;;;16.50;70.18;100942.88;5022099;28;1016;-77
2023/09/09 06:11:06;;;;;;;;;;;;;;;16.50;69.93;100945.59;5031563;28;2004;-77
2023/09/09 06:13:58;;;;;;;;;;;;;;;16.49;69.98;100938.50;5026248;28;1523;-79
2023/09/09 06:16:49;;;;;;;;;;;;;;;16.49;69.99;100937.69;5023881;28;1976;-77
2023/09/09 06:19:43;;;;;;;;;;;;;;;16.49;69.92;100938.50;5029547;28;1956;-78
2023/09/09 06:22:35;;;;;;;;;;;;;;;16.49;70.07;100943.94;5028467;28;945;-76
2023/09/09 06:25:27;;;;;;;;;;;;;;;16.48;70.00;100936.03;5029826;28;954;-77
2023/09/09 06:28:19;;;;;;;;;;;;;;;16.48;69.88;100941.47;5023705;28;949;-76
2023/09/09 06:31:11;;;;;;;;;;;;;;;16.48;69.91;100939.59;5027564;28;2044;-76
2023/09/09 06:34:03;;;;;;;;;;;;;;;16.48;70.02;100941.47;5029847;28;1325;-77
2023/09/09 06:36:55;;;;;;;;;;;;;;;16.48;70.00;100938.75;5028692;28;921;-76
2023/09/09 06:39:47;;;;;;;;;;;;;;;16.47;70.06;100943.38;5029894;28;2075;-76
2023/09/09 06:42:39;;;;;;;;;;;;;;;16.47;69.95;100935.22;5028408;28;1277;-77
2023/09/09 06:45:31;;;;;;;;;;;;;;;16.47;69.95;100928.94;5031952;28;2030;-77
2023/09/09 06:48:23;;;;;;;;;;;;;;;16.47;69.88;100935.22;5032417;28;968;-77
2023/09/09 06:51:16;;;;;;;;;;;;;;;16.37;70.00;100917.94;5032029;28;1857;-78
2023/09/09 06:54:07;;;;;;;;;;;;;;;16.47;70.17;100934.38;5026157;28;2041;-78
2023/09/09 06:56:59;;;;;;;;;;;;;;;16.47;69.89;100935.22;5029417;28;964;-77
2023/09/09 06:59:51;;;;;;;;;;;;;;;16.47;69.96;100927.06;5027765;28;1910;-78
2023/09/09 07:02:43;;;;;;;;;;;;;;;16.47;70.09;100934.38;5024909;28;913;-77
2023/09/09 07:05:35;;;;;;;;;;;;;;;16.46;69.93;100932.75;5024059;28;1977;-77
2023/09/09 07:08:27;;;;;;;;;;;;;;;16.46;70.01;100936.28;5030095;28;1934;-76
2023/09/09 07:11:19;;;;;;;;;;;;;;;16.46;69.91;100940.91;5028825;28;1981;-78
2023/09/09 07:14:11;;;;;;;;;;;;;;;16.46;70.03;100941.72;5022430;28;1942;-78
2023/09/09 07:17:03;;;;;;;;;;;;;;;16.46;69.95;100933.56;5027764;28;2136;-76
2023/09/09 07:19:55;;;;;;;;;;;;;;;16.47;69.90;100947.97;5026866;28;1977;-79
2023/09/09 07:22:47;;;;;;;;;;;;;;;16.46;69.92;100944.44;5021059;28;5368;-78
2023/09/09 07:25:39;;;;;;;;;;;;;;;16.46;69.95;100944.44;5027980;28;5226;-76
2023/09/09 07:28:31;;;;;;;;;;;;;;;16.46;70.02;100935.47;5023888;28;5127;-77
2023/09/09 07:31:23;;;;;;;;;;;;;;;16.46;69.94;100935.47;5030990;28;1317;-76
2023/09/09 07:34:15;;;;;;;;;;;;;;;16.45;69.85;100937.38;5024553;28;2405;-77
2023/09/09 07:37:07;;;;;;;;;;;;;;;16.46;69.81;100932.75;5030003;28;1190;-75
2023/09/09 07:39:59;;;;;;;;;;;;;;;16.45;69.87;100926.50;5030036;28;1898;-76
2023/09/09 07:42:51;;;;;;;;;;;;;;;16.45;69.94;100925.66;5027117;28;1379;-77
2023/09/09 07:45:42;;;;;;;;;;;;;;;16.46;69.87;100947.16;5026789;28;1962;-78
2023/09/09 07:48:34;;;;;;;;;;;;;;;16.46;70.01;100946.34;5026638;28;1115;-75
2023/09/09 07:51:26;;;;;;;;;;;;;;;16.45;70.07;100945.50;5023224;28;1372;-76
2023/09/09 07:54:18;;;;;;;;;;;;;;;16.45;70.00;100950.94;5018607;28;2409;-77
2023/09/09 07:57:10;;;;;;;;;;;;;;;16.45;69.85;100952.84;5024718;28;1779;-77
2023/09/09 08:00:05;;;;;;;;;;;;;;;16.45;69.94;100956.41;5029556;28;1980;-77
2023/09/09 08:02:57;;;;;;;;;;;;;;;16.45;69.86;100955.56;5031631;28;1344;-76
2023/09/09 08:05:48;;;;;;;;;;;;;;;16.45;69.89;100956.41;5022898;28;1922;-78
2023/09/09 08:08:40;;;;;;;;;;;;;;;16.45;69.88;100955.56;5032040;28;1483;-77
2023/09/09 08:11:32;;;;;;;;;;;;;;;16.45;69.91;100955.56;5029382;28;2071;-76
2023/09/09 08:14:24;;;;;;;;;;;;;;;16.45;69.87;100953.66;5026997;28;1949;-75
2023/09/09 08:17:16;;;;;;;;;;;;;;;16.45;69.95;100955.56;5028705;28;1558;-77
2023/09/09 08:20:08;;;;;;;;;;;;;;;16.44;69.95;100949.31;5030373;28;1955;-76
2023/09/09 08:23:00;;;;;;;;;;;;;;;16.45;69.95;100948.25;5027821;28;2037;-77
2023/09/09 08:25:52;;;;;;;;;;;;;;;16.45;69.87;100941.97;5022549;28;1817;-77
2023/09/09 08:28:44;;;;;;;;;;;;;;;16.45;69.96;100942.81;5027448;28;1626;-76
2023/09/09 08:31:36;;;;;;;;;;;;;;;16.45;70.14;100945.50;5025005;28;2034;-77
2023/09/09 08:34:28;;;;;;;;;;;;;;;16.45;69.99;100941.97;5029994;28;1657;-75
2023/09/09 08:37:20;;;;;;;;;;;;;;;16.45;70.00;100944.69;5026595;28;1710;-75
2023/09/09 08:40:15;;;;;;;;;;;;;;;16.44;69.96;100946.59;5024607;28;1907;-77
2023/09/09 08:43:07;;;;;;;;;;;;;;;16.44;69.96;100932.16;5031547;28;1672;-75
2023/09/09 08:45:58;;;;;;;;;;;;;;;16.45;69.95;100928.38;5021748;28;1809;-76
2023/09/09 08:48:50;;;;;;;;;;;;;;;16.45;70.08;100931.09;5030457;28;1327;-77
2023/09/09 08:51:50;;;;;;;;;;;;;;;16.44;70.16;100937.59;5022255;28;1973;-77
2023/09/09 08:54:42;;;;;;;;;;;;;;;16.45;69.98;100936.53;5027364;28;1943;-75
2023/09/09 08:57:33;;;;;;;;;;;;;;;16.45;70.07;100936.53;5027950;28;1559;-78
2023/09/09 09:00:25;;;;;;;;;;;;;;;16.44;70.13;100943.88;5024486;28;1906;-75
2023/09/09 09:03:17;;;;;;;;;;;;;;;16.44;70.08;100943.88;5031794;28;1615;-77
2023/09/09 09:06:10;;;;;;;;;;;;;;;16.44;70.16;100945.75;5019866;28;1633;-77
2023/09/09 09:09:02;;;;;;;;;;;;;;;16.45;69.98;100948.25;5029617;28;1460;-76
2023/09/09 09:11:54;;;;;;;;;;;;;;;16.44;69.96;100946.59;5025897;28;2291;-74
2023/09/09 09:14:46;;;;;;;;;;;;;;;16.45;70.08;100929.22;5029172;28;1472;-78
2023/09/09 09:17:40;;;;;;;;;;;;;;;16.44;70.07;100924.84;5026737;28;952;-77
2023/09/09 09:20:33;;;;;;;;;;;;;;;16.45;70.02;100928.38;5026837;28;2013;-76
2023/09/09 09:23:24;;;;;;;;;;;;;;;16.45;69.95;100929.22;5030683;28;1431;-75
2023/09/09 09:26:16;;;;;;;;;;;;;;;16.45;70.10;100925.66;5029582;28;1721;-77
2023/09/09 09:29:08;;;;;;;;;;;;;;;16.45;70.06;100917.50;5026487;28;1941;-77
2023/09/09 09:32:00;;;;;;;;;;;;;;;16.45;70.16;100915.63;5023435;28;1911;-76
2023/09/09 09:34:54;;;;;;;;;;;;;;;16.44;70.15;100897.66;5023027;28;941;-78
2023/09/09 09:37:45;;;;;;;;;;;;;;;16.45;70.05;100898.50;5029555;28;1439;-76
2023/09/09 09:40:36;;;;;;;;;;;;;;;16.44;70.22;100905.81;5033650;28;1965;-78
2023/09/09 09:43:28;;;;;;;;;;;;;;;16.45;70.15;100902.03;5032689;28;2121;-77
2023/09/09 09:46:20;;;;;;;;;;;;;;;16.45;70.08;100885.72;5030539;28;1590;-77
2023/09/09 09:49:12;;;;;;;;;;;;;;;16.44;70.09;100889.50;5029291;28;1942;-77
2023/09/09 09:52:04;;;;;;;;;;;;;;;16.45;70.06;100893.88;5030168;28;3619;-77
2023/09/09 09:54:56;;;;;;;;;;;;;;;16.46;70.19;100887.34;5029393;28;4929;-76
2023/09/09 09:57:48;;;;;;;;;;;;;;;16.46;70.28;100891.97;5033052;28;1539;-77
2023/09/09 10:00:40;;;;;;;;;;;;;;;16.46;70.32;100879.19;5032728;28;1906;-76
2023/09/09 10:03:32;;;;;;;;;;;;;;;16.46;70.28;100889.25;5030001;28;1230;-77
2023/09/09 10:06:24;;;;;;;;;;;;;;;16.46;70.28;100895.50;5031350;28;1380;-76
2023/09/09 10:09:18;;;;;;;;;;;;;;;16.46;70.39;100894.69;5028381;28;2001;-78
2023/09/09 10:12:09;;;;;;;;;;;;;;;16.46;70.22;100897.41;5022389;28;4976;-76
2023/09/09 10:15:01;;;;;;;;;;;;;;;16.45;70.32;100902.03;5029090;28;1523;-76
2023/09/09 10:17:53;;;;;;;;;;;;;;;16.46;70.31;100898.22;5030197;28;1039;-78
2023/09/09 10:20:45;;;;;;;;;;;;;;;16.46;70.34;100890.06;5027368;28;1898;-77
2023/09/09 10:23:37;;;;;;;;;;;;;;;16.46;70.33;100887.34;5026520;28;2117;-78
2023/09/09 10:26:29;;;;;;;;;;;;;;;16.46;70.32;100887.34;5030273;28;1563;-77
2023/09/09 10:29:21;;;;;;;;;;;;;;;16.46;70.48;100887.34;5027251;28;1942;-76
2023/09/09 10:32:13;;;;;;;;;;;;;;;16.47;70.52;100890.88;5029040;28;1562;-78
2023/09/09 10:35:06;;;;;;;;;;;;;;;16.46;70.26;100881.91;5031980;28;1293;-77
2023/09/09 10:37:57;;;;;;;;;;;;;;;16.47;70.37;100878.13;5026682;28;2491;-77
2023/09/09 10:40:49;;;;;;;;;;;;;;;16.47;70.45;100883.56;5027897;28;2040;-77
2023/09/09 10:43:41;;;;;;;;;;;;;;;16.47;70.29;100880.84;5027299;28;1686;-76
2023/09/09 10:46:33;;;;;;;;;;;;;;;16.47;70.45;100872.69;5044552;22;3779;-76
2023/09/09 10:49:26;;;;;;;;;;;;;;;16.47;70.40;100878.13;5030690;28;930;-77
2023/09/09 10:52:18;;;;;;;;;;;;;;;16.47;70.53;100877.28;5029004;28;1509;-77
2023/09/09 10:55:10;;;;;;;;;;;;;;;16.49;70.26;100858.84;5031805;28;1980;-78
2023/09/09 10:58:01;;;;;;;;;;;;;;;16.48;70.37;100859.94;5026353;28;2103;-77
2023/09/09 11:00:53;;;;;;;;;;;;;;;16.48;70.36;100857.22;5028992;28;2015;-76
2023/09/09 11:03:45;;;;;;;;;;;;;;;16.47;70.39;100842.78;5029513;28;2115;-76
2023/09/09 11:06:37;;;;;;;;;;;;;;;16.48;70.47;100843.63;5024450;28;1945;-76
2023/09/09 11:09:30;;;;;;;;;;;;;;;16.48;70.51;100844.44;5029395;28;1528;-77
2023/09/09 11:12:21;;;;;;;;;;;;;;;16.48;70.46;100844.44;5029170;28;1587;-75
2023/09/09 11:15:13;;;;;;;;;;;;;;;16.49;70.45;100847.97;5031461;28;1916;-78
2023/09/09 11:18:05;;;;;;;;;;;;;;;16.48;70.38;100841.72;5026064;28;1799;-75
2023/09/09 11:20:57;;;;;;;;;;;;;;;16.48;70.40;100844.44;5029428;28;1961;-76
2023/09/09 11:23:49;;;;;;;;;;;;;;;16.49;70.45;100848.78;5028408;28;1579;-75
2023/09/09 11:26:41;;;;;;;;;;;;;;;16.49;70.38;100843.34;5029400;28;1995;-75
2023/09/09 11:29:33;;;;;;;;;;;;;;;16.50;70.37;100838.72;5028544;28;1485;-76
2023/09/09 11:32:26;;;;;;;;;;;;;;;16.51;70.39;100848.53;5028557;28;1520;-76
2023/09/09 11:35:17;;;;;;;;;;;;;;;16.51;70.42;100843.09;5027593;28;1992;-77
2023/09/09 11:38:09;;;;;;;;;;;;;;;16.50;70.42;100831.41;5030241;28;1587;-77
2023/09/09 11:41:02;;;;;;;;;;;;;;;16.51;70.46;100838.50;5030136;28;1961;-77
2023/09/09 11:43:53;;;;;;;;;;;;;;;16.50;70.36;100819.69;5033540;28;1369;-78
2023/09/09 11:46:45;;;;;;;;;;;;;;;16.50;70.40;100823.25;5027710;28;2648;-77
2023/09/09 11:49:38;;;;;;;;;;;;;;;16.52;70.45;100826.53;5026470;28;1619;-77
2023/09/09 11:52:30;;;;;;;;;;;;;;;16.51;70.48;100816.75;5027249;28;1614;-78
2023/09/09 11:55:22;;;;;;;;;;;;;;;16.52;70.58;100815.66;5021512;28;2183;-77
2023/09/09 11:58:14;;;;;;;;;;;;;;;16.53;70.45;100811.03;5017951;28;1943;-76
2023/09/09 12:01:06;;;;;;;;;;;;;;;16.53;70.42;100808.31;5027032;28;2268;-76
2023/09/09 12:03:58;;;;;;;;;;;;;;;16.54;70.45;100820.84;5028861;28;943;-77
2023/09/09 12:06:50;;;;;;;;;;;;;;;16.55;70.40;100822.47;5028910;28;2021;-77
2023/09/09 12:09:42;;;;;;;;;;;;;;;16.55;70.43;100825.22;5031414;28;2486;-76
2023/09/09 12:12:34;;;;;;;;;;;;;;;16.56;70.57;100818.72;5017369;28;881;-76
2023/09/09 12:15:26;;;;;;;;;;;;;;;16.56;70.46;100810.56;5024952;28;2106;-76
2023/09/09 12:18:18;;;;;;;;;;;;;;;16.56;70.55;100819.53;5028500;28;2109;-78
2023/09/09 12:21:10;;;;;;;;;;;;;;;16.57;70.46;100820.34;5025420;28;1956;-76
2023/09/09 12:24:02;;;;;;;;;;;;;;;16.58;70.44;100828.22;5020734;28;5828;-76
2023/09/09 12:26:54;;;;;;;;;;;;;;;16.58;70.45;100816.53;5029012;28;2501;-77
2023/09/09 12:29:46;;;;;;;;;;;;;;;16.58;70.49;100817.34;5024372;28;4658;-75
2023/09/09 12:32:38;;;;;;;;;;;;;;;16.59;70.38;100820.94;5024460;28;1632;-75
2023/09/09 12:35:30;;;;;;;;;;;;;;;16.59;70.48;100831.81;5019705;28;2104;-75
2023/09/09 12:38:22;;;;;;;;;;;;;;;16.61;70.57;100829.63;5029739;28;2032;-76
2023/09/09 12:41:13;;;;;;;;;;;;;;;16.61;70.38;100828.81;5031418;28;4396;-77
2023/09/09 12:44:05;;;;;;;;;;;;;;;16.62;70.51;100817.69;5025155;28;1539;-76
2023/09/09 12:46:57;;;;;;;;;;;;;;;16.62;70.43;100806.81;5027263;28;2070;-77
2023/09/09 12:49:49;;;;;;;;;;;;;;;16.63;70.46;100804.91;5020734;28;1656;-76
2023/09/09 12:52:41;;;;;;;;;;;;;;;16.63;70.56;100783.16;5020599;28;2128;-76
2023/09/09 12:55:33;;;;;;;;;;;;;;;16.64;70.53;100788.34;5025431;28;2117;-77
2023/09/09 12:58:25;;;;;;;;;;;;;;;16.64;70.54;100785.63;5026446;28;1489;-77
2023/09/09 13:01:17;;;;;;;;;;;;;;;16.65;70.59;100781.84;5025745;28;1902;-76
2023/09/09 13:04:08;;;;;;;;;;;;;;;16.66;70.52;100790.81;5027702;28;1899;-78
2023/09/09 13:07:00;;;;;;;;;;;;;;;16.66;70.67;100780.75;5022778;28;2256;-76
2023/09/09 13:09:52;;;;;;;;;;;;;;;16.66;70.46;100780.75;5022729;28;2103;-76
2023/09/09 13:12:44;;;;;;;;;;;;;;;16.67;70.60;100779.66;5031315;28;2162;-78
2023/09/09 13:15:36;;;;;;;;;;;;;;;16.68;70.51;100780.50;5029242;28;2086;-77
2023/09/09 13:18:28;;;;;;;;;;;;;;;16.68;70.67;100775.91;5021151;28;1475;-78
2023/09/09 13:21:20;;;;;;;;;;;;;;;16.73;71.14;100769.66;5030019;28;1906;-77
2023/09/09 13:24:12;;;;;;;;;;;;;;;16.71;70.63;100772.66;5030554;28;2376;-77
2023/09/09 13:27:05;;;;;;;;;;;;;;;16.71;70.77;100778.09;5032549;28;1841;-76
2023/09/09 13:29:56;;;;;;;;;;;;;;;16.72;71.00;100771.56;5028245;28;1754;-75
2023/09/09 13:32:48;;;;;;;;;;;;;;;16.72;70.98;100763.41;5028457;28;2066;-77
2023/09/09 13:35:40;;;;;;;;;;;;;;;16.73;71.04;100770.50;5027699;28;2062;-76
2023/09/09 13:38:32;;;;;;;;;;;;;;;16.73;71.01;100766.94;5030438;28;1003;-77
2023/09/09 13:41:28;;;;;;;;;;;;;;;16.74;71.19;100761.28;5022978;28;5756;-77
2023/09/09 13:44:20;;;;;;;;;;;;;;;16.75;71.15;100762.91;5025280;28;5223;-76
2023/09/09 13:47:11;;;;;;;;;;;;;;;16.76;71.18;100752.88;5027344;28;4270;-76
2023/09/09 13:50:03;;;;;;;;;;;;;;;16.76;71.07;100747.44;5023379;28;2471;-75
2023/09/09 13:53:03;;;;;;;;;;;;;;;16.76;71.23;100753.69;5022015;28;2381;-76
2023/09/09 13:55:54;;;;;;;;;;;;;;;16.78;71.23;100761.59;5028512;28;2664;-77
2023/09/09 13:58:49;;;;;;;;;;;;;;;16.79;71.15;100757.81;5030137;28;2919;-75
2023/09/09 14:01:42;;;;;;;;;;;;;;;16.79;71.11;100774.13;5030164;28;1984;-76
2023/09/09 14:04:44;;;;;;;;;;;;;;;16.80;71.32;100778.50;5029548;28;1540;-76
2023/09/09 14:07:37;;;;;;;;;;;;;;;16.81;71.19;100782.84;5027903;28;2164;-76
2023/09/09 14:10:28;;;;;;;;;;;;;;;16.82;71.18;100781.75;5031763;28;1691;-77
2023/09/09 14:13:20;;;;;;;;;;;;;;;16.82;71.25;100780.94;5026401;28;2114;-77
2023/09/09 14:16:12;;;;;;;;;;;;;;;16.82;71.12;100767.34;5027020;28;1501;-76
2023/09/09 14:19:04;;;;;;;;;;;;;;;16.83;71.14;100749.97;5024202;28;2067;-78
2023/09/09 14:21:56;;;;;;;;;;;;;;;16.84;71.20;100740.72;5012109;28;2198;-78
2023/09/09 14:24:48;;;;;;;;;;;;;;;16.84;71.27;100733.38;5020600;28;1596;-76
2023/09/09 14:27:40;;;;;;;;;;;;;;;16.85;71.36;100753.25;5023515;28;1501;-77
2023/09/09 14:30:32;;;;;;;;;;;;;;;16.85;71.38;100755.97;5027346;28;1638;-76
2023/09/09 14:33:24;;;;;;;;;;;;;;;16.85;71.38;100764.13;5025881;28;2099;-76
2023/09/09 14:36:16;;;;;;;;;;;;;;;16.86;71.36;100766.59;5024292;28;1613;-74
2023/09/09 14:39:09;;;;;;;;;;;;;;;16.86;71.39;100765.78;5022238;28;1438;-76
2023/09/09 14:42:00;;;;;;;;;;;;;;;16.87;71.21;100754.63;5028109;28;1906;-76
2023/09/09 14:44:52;;;;;;;;;;;;;;;16.88;71.39;100753.53;5027776;28;2013;-77
2023/09/09 14:47:43;;;;;;;;;;;;;;;16.88;71.41;100729.06;5030379;28;2043;-78
2023/09/09 14:50:35;;;;;;;;;;;;;;;16.88;71.29;100731.78;5027105;28;1086;-76
2023/09/09 14:53:27;;;;;;;;;;;;;;;16.89;71.42;100730.72;5024678;28;1488;-77
2023/09/09 14:56:21;;;;;;;;;;;;;;;16.89;71.52;100733.44;5026662;28;1460;-76